sensor_id;sensor_type;location;lat;lon;timestamp;P1;durP1;ratioP1;P2;durP2;ratioP2
2123;SDS011;1068;52.460;13.528;2022-11-15T00:00:51;30.20;;;19.13;;
2123;SDS011;1068;52.460;13.528;2022-11-15T00:03:18;24.20;;;19.13;;
2123;SDS011;1068;52.460;13.528;2022-11-15T00:05:45;24.17;;;19.60;;
2123;SDS011;1068;52.460;13.528;2022-11-15T00:08:14;26.13;;;20.20;;
2123;SDS011;1068;52.460;13.528;2022-11-15T00:10:41;26.97;;;19.70;;
2123;SDS011;1068;52.460;13.528;2022-11-15T00:13:08;26.83;;;19.52;;
2123;SDS011;1068;52.460;13.528;2022-11-15T00:15:36;30.52;;;21.00;;
2123;SDS011;1068;52.460;13.528;2022-11-15T00:18:03;24.87;;;18.90;;
2123;SDS011;1068;52.460;13.528;2022-11-15T00:20:31;29.33;;;21.20;;
2123;SDS011;1068;52.460;13.528;2022-11-15T00:22:58;28.50;;;20.33;;
2123;SDS011;1068;52.460;13.528;2022-11-15T00:25:26;26.13;;;19.13;;
2123;SDS011;1068;52.460;13.528;2022-11-15T00:27:54;28.07;;;20.50;;
2123;SDS011;1068;52.460;13.528;2022-11-15T00:30:22;24.95;;;19.10;;
2123;SDS011;1068;52.460;13.528;2022-11-15T00:32:49;27.30;;;20.75;;
2123;SDS011;1068;52.460;13.528;2022-11-15T00:35:16;26.87;;;18.37;;
2123;SDS011;1068;52.460;13.528;2022-11-15T00:37:43;28.30;;;21.30;;
2123;SDS011;1068;52.460;13.528;2022-11-15T00:40:10;28.02;;;20.60;;
2123;SDS011;1068;52.460;13.528;2022-11-15T00:42:39;26.70;;;21.15;;
2123;SDS011;1068;52.460;13.528;2022-11-15T00:45:07;23.85;;;18.67;;
2123;SDS011;1068;52.460;13.528;2022-11-15T00:47:34;32.83;;;21.17;;
2123;SDS011;1068;52.460;13.528;2022-11-15T00:50:01;25.85;;;19.58;;
2123;SDS011;1068;52.460;13.528;2022-11-15T00:52:28;27.38;;;19.38;;
2123;SDS011;1068;52.460;13.528;2022-11-15T00:54:55;26.25;;;19.42;;
2123;SDS011;1068;52.460;13.528;2022-11-15T00:57:22;28.25;;;20.35;;
2123;SDS011;1068;52.460;13.528;2022-11-15T00:59:50;27.33;;;20.08;;
2123;SDS011;1068;52.460;13.528;2022-11-15T01:02:17;28.25;;;20.45;;
2123;SDS011;1068;52.460;13.528;2022-11-15T01:04:44;26.98;;;20.45;;
2123;SDS011;1068;52.460;13.528;2022-11-15T01:07:11;26.83;;;18.48;;
2123;SDS011;1068;52.460;13.528;2022-11-15T01:09:38;27.95;;;21.20;;
2123;SDS011;1068;52.460;13.528;2022-11-15T01:12:05;27.55;;;19.98;;
2123;SDS011;1068;52.460;13.528;2022-11-15T01:14:32;24.30;;;18.90;;
2123;SDS011;1068;52.460;13.528;2022-11-15T01:17:00;29.30;;;20.35;;
2123;SDS011;1068;52.460;13.528;2022-11-15T01:19:27;27.20;;;19.73;;
2123;SDS011;1068;52.460;13.528;2022-11-15T01:21:54;28.58;;;20.67;;
2123;SDS011;1068;52.460;13.528;2022-11-15T01:24:21;26.98;;;19.45;;
2123;SDS011;1068;52.460;13.528;2022-11-15T01:26:47;26.90;;;19.80;;
2123;SDS011;1068;52.460;13.528;2022-11-15T01:29:14;25.55;;;18.10;;
2123;SDS011;1068;52.460;13.528;2022-11-15T01:31:41;28.45;;;19.85;;
2123;SDS011;1068;52.460;13.528;2022-11-15T01:34:10;30.13;;;20.52;;
2123;SDS011;1068;52.460;13.528;2022-11-15T01:36:37;28.65;;;20.20;;
2123;SDS011;1068;52.460;13.528;2022-11-15T01:39:03;25.27;;;18.67;;
2123;SDS011;1068;52.460;13.528;2022-11-15T01:41:32;29.50;;;20.17;;
2123;SDS011;1068;52.460;13.528;2022-11-15T01:46:40;28.45;;;19.77;;
2123;SDS011;1068;52.460;13.528;2022-11-15T01:49:13;26.75;;;20.33;;
2123;SDS011;1068;52.460;13.528;2022-11-15T01:51:41;30.70;;;19.75;;
2123;SDS011;1068;52.460;13.528;2022-11-15T01:54:08;27.90;;;19.50;;
2123;SDS011;1068;52.460;13.528;2022-11-15T01:56:39;25.58;;;20.35;;
2123;SDS011;1068;52.460;13.528;2022-11-15T01:59:07;25.50;;;19.42;;
2123;SDS011;1068;52.460;13.528;2022-11-15T02:01:35;26.08;;;19.95;;
2123;SDS011;1068;52.460;13.528;2022-11-15T02:04:04;32.65;;;22.95;;
2123;SDS011;1068;52.460;13.528;2022-11-15T02:06:33;26.65;;;19.92;;
2123;SDS011;1068;52.460;13.528;2022-11-15T02:09:01;27.88;;;20.02;;
2123;SDS011;1068;52.460;13.528;2022-11-15T02:11:28;26.63;;;18.35;;
2123;SDS011;1068;52.460;13.528;2022-11-15T02:13:55;32.25;;;19.73;;
2123;SDS011;1068;52.460;13.528;2022-11-15T02:16:25;26.98;;;20.05;;
2123;SDS011;1068;52.460;13.528;2022-11-15T02:18:57;30.75;;;21.88;;
2123;SDS011;1068;52.460;13.528;2022-11-15T02:21:27;26.80;;;19.08;;
2123;SDS011;1068;52.460;13.528;2022-11-15T02:24:25;29.30;;;19.27;;
2123;SDS011;1068;52.460;13.528;2022-11-15T02:29:52;26.50;;;19.75;;
2123;SDS011;1068;52.460;13.528;2022-11-15T02:32:25;25.83;;;18.95;;
2123;SDS011;1068;52.460;13.528;2022-11-15T02:34:58;25.05;;;19.38;;
2123;SDS011;1068;52.460;13.528;2022-11-15T02:37:31;25.75;;;19.25;;
2123;SDS011;1068;52.460;13.528;2022-11-15T02:40:03;26.23;;;19.65;;
2123;SDS011;1068;52.460;13.528;2022-11-15T02:42:32;26.25;;;20.25;;
2123;SDS011;1068;52.460;13.528;2022-11-15T02:45:24;28.20;;;20.58;;
2123;SDS011;1068;52.460;13.528;2022-11-15T02:47:54;27.55;;;18.98;;
2123;SDS011;1068;52.460;13.528;2022-11-15T02:50:22;25.17;;;19.30;;
2123;SDS011;1068;52.460;13.528;2022-11-15T02:52:51;26.67;;;19.83;;
2123;SDS011;1068;52.460;13.528;2022-11-15T02:55:25;25.20;;;19.15;;
2123;SDS011;1068;52.460;13.528;2022-11-15T02:57:54;29.10;;;20.42;;
2123;SDS011;1068;52.460;13.528;2022-11-15T03:00:25;27.27;;;20.07;;
2123;SDS011;1068;52.460;13.528;2022-11-15T03:02:58;26.00;;;18.77;;
2123;SDS011;1068;52.460;13.528;2022-11-15T03:05:34;26.98;;;19.73;;
2123;SDS011;1068;52.460;13.528;2022-11-15T03:08:03;28.98;;;20.83;;
2123;SDS011;1068;52.460;13.528;2022-11-15T03:10:35;30.87;;;20.37;;
2123;SDS011;1068;52.460;13.528;2022-11-15T03:13:06;32.75;;;19.77;;
2123;SDS011;1068;52.460;13.528;2022-11-15T03:15:38;23.50;;;19.15;;
2123;SDS011;1068;52.460;13.528;2022-11-15T03:18:12;26.48;;;18.45;;
2123;SDS011;1068;52.460;13.528;2022-11-15T03:20:41;24.58;;;18.73;;
2123;SDS011;1068;52.460;13.528;2022-11-15T03:23:10;24.88;;;19.90;;
2123;SDS011;1068;52.460;13.528;2022-11-15T03:25:38;30.98;;;20.40;;
2123;SDS011;1068;52.460;13.528;2022-11-15T03:28:08;24.35;;;18.70;;
2123;SDS011;1068;52.460;13.528;2022-11-15T03:30:36;25.95;;;19.98;;
2123;SDS011;1068;52.460;13.528;2022-11-15T03:33:04;26.85;;;19.70;;
2123;SDS011;1068;52.460;13.528;2022-11-15T03:35:33;23.73;;;18.60;;
2123;SDS011;1068;52.460;13.528;2022-11-15T03:38:04;23.67;;;17.90;;
2123;SDS011;1068;52.460;13.528;2022-11-15T03:40:34;27.48;;;19.60;;
2123;SDS011;1068;52.460;13.528;2022-11-15T03:43:04;23.55;;;18.85;;
2123;SDS011;1068;52.460;13.528;2022-11-15T03:45:36;26.70;;;19.67;;
2123;SDS011;1068;52.460;13.528;2022-11-15T03:48:05;28.05;;;19.00;;
2123;SDS011;1068;52.460;13.528;2022-11-15T03:50:35;25.38;;;19.83;;
2123;SDS011;1068;52.460;13.528;2022-11-15T03:53:02;28.20;;;20.42;;
2123;SDS011;1068;52.460;13.528;2022-11-15T03:55:31;26.77;;;20.02;;
2123;SDS011;1068;52.460;13.528;2022-11-15T03:57:58;28.60;;;19.17;;
2123;SDS011;1068;52.460;13.528;2022-11-15T04:00:26;27.98;;;20.00;;
2123;SDS011;1068;52.460;13.528;2022-11-15T04:02:53;27.73;;;20.90;;
2123;SDS011;1068;52.460;13.528;2022-11-15T04:05:20;28.90;;;20.08;;
2123;SDS011;1068;52.460;13.528;2022-11-15T04:07:48;28.50;;;20.75;;
2123;SDS011;1068;52.460;13.528;2022-11-15T04:10:15;27.95;;;19.70;;
2123;SDS011;1068;52.460;13.528;2022-11-15T04:12:43;28.90;;;20.85;;
2123;SDS011;1068;52.460;13.528;2022-11-15T04:15:12;27.95;;;20.80;;
2123;SDS011;1068;52.460;13.528;2022-11-15T04:17:40;32.80;;;22.23;;
2123;SDS011;1068;52.460;13.528;2022-11-15T04:20:08;28.45;;;20.70;;
2123;SDS011;1068;52.460;13.528;2022-11-15T04:22:55;27.05;;;19.92;;
2123;SDS011;1068;52.460;13.528;2022-11-15T04:25:40;24.88;;;18.95;;
2123;SDS011;1068;52.460;13.528;2022-11-15T04:28:08;24.25;;;19.10;;
2123;SDS011;1068;52.460;13.528;2022-11-15T04:30:35;25.67;;;20.25;;
2123;SDS011;1068;52.460;13.528;2022-11-15T04:33:02;27.58;;;20.52;;
2123;SDS011;1068;52.460;13.528;2022-11-15T04:35:29;26.30;;;19.42;;
2123;SDS011;1068;52.460;13.528;2022-11-15T04:37:57;26.48;;;19.80;;
2123;SDS011;1068;52.460;13.528;2022-11-15T04:40:24;27.63;;;19.88;;
2123;SDS011;1068;52.460;13.528;2022-11-15T04:42:51;29.52;;;20.08;;
2123;SDS011;1068;52.460;13.528;2022-11-15T04:45:18;27.50;;;20.05;;
2123;SDS011;1068;52.460;13.528;2022-11-15T04:47:45;28.00;;;19.20;;
2123;SDS011;1068;52.460;13.528;2022-11-15T04:50:12;23.52;;;19.40;;
2123;SDS011;1068;52.460;13.528;2022-11-15T04:52:40;28.02;;;19.50;;
2123;SDS011;1068;52.460;13.528;2022-11-15T04:55:08;27.95;;;19.63;;
2123;SDS011;1068;52.460;13.528;2022-11-15T04:57:35;27.75;;;19.52;;
2123;SDS011;1068;52.460;13.528;2022-11-15T05:00:03;24.27;;;19.27;;
2123;SDS011;1068;52.460;13.528;2022-11-15T05:02:30;26.58;;;19.50;;
2123;SDS011;1068;52.460;13.528;2022-11-15T05:05:11;30.73;;;19.10;;
2123;SDS011;1068;52.460;13.528;2022-11-15T05:07:37;26.00;;;18.85;;
2123;SDS011;1068;52.460;13.528;2022-11-15T05:10:04;25.33;;;18.05;;
2123;SDS011;1068;52.460;13.528;2022-11-15T05:12:33;26.73;;;18.25;;
2123;SDS011;1068;52.460;13.528;2022-11-15T05:15:00;23.90;;;19.60;;
2123;SDS011;1068;52.460;13.528;2022-11-15T05:17:27;32.03;;;20.23;;
2123;SDS011;1068;52.460;13.528;2022-11-15T05:19:53;31.50;;;21.08;;
2123;SDS011;1068;52.460;13.528;2022-11-15T05:22:21;27.40;;;20.50;;
2123;SDS011;1068;52.460;13.528;2022-11-15T05:24:47;24.85;;;19.35;;
2123;SDS011;1068;52.460;13.528;2022-11-15T05:27:14;26.20;;;18.90;;
2123;SDS011;1068;52.460;13.528;2022-11-15T05:29:43;27.00;;;19.80;;
2123;SDS011;1068;52.460;13.528;2022-11-15T05:32:09;26.63;;;20.35;;
2123;SDS011;1068;52.460;13.528;2022-11-15T05:34:38;26.83;;;19.70;;
2123;SDS011;1068;52.460;13.528;2022-11-15T05:37:05;29.92;;;20.98;;
2123;SDS011;1068;52.460;13.528;2022-11-15T05:39:32;27.77;;;20.10;;
2123;SDS011;1068;52.460;13.528;2022-11-15T05:41:59;26.13;;;19.42;;
2123;SDS011;1068;52.460;13.528;2022-11-15T05:44:27;31.30;;;20.85;;
2123;SDS011;1068;52.460;13.528;2022-11-15T05:46:56;26.55;;;19.58;;
2123;SDS011;1068;52.460;13.528;2022-11-15T05:49:24;31.45;;;22.38;;
2123;SDS011;1068;52.460;13.528;2022-11-15T05:51:51;28.05;;;20.05;;
2123;SDS011;1068;52.460;13.528;2022-11-15T05:54:19;30.48;;;20.67;;
2123;SDS011;1068;52.460;13.528;2022-11-15T05:56:48;28.83;;;20.50;;
2123;SDS011;1068;52.460;13.528;2022-11-15T05:59:24;30.80;;;19.52;;
2123;SDS011;1068;52.460;13.528;2022-11-15T06:01:53;32.63;;;20.75;;
2123;SDS011;1068;52.460;13.528;2022-11-15T06:04:24;25.35;;;19.00;;
2123;SDS011;1068;52.460;13.528;2022-11-15T06:06:51;27.88;;;20.48;;
2123;SDS011;1068;52.460;13.528;2022-11-15T06:09:18;26.50;;;20.30;;
2123;SDS011;1068;52.460;13.528;2022-11-15T06:11:44;29.10;;;20.45;;
2123;SDS011;1068;52.460;13.528;2022-11-15T06:14:12;22.88;;;18.55;;
2123;SDS011;1068;52.460;13.528;2022-11-15T06:16:39;30.40;;;22.70;;
2123;SDS011;1068;52.460;13.528;2022-11-15T06:19:06;25.15;;;20.50;;
2123;SDS011;1068;52.460;13.528;2022-11-15T06:21:35;28.80;;;20.80;;
2123;SDS011;1068;52.460;13.528;2022-11-15T06:24:02;27.70;;;22.02;;
2123;SDS011;1068;52.460;13.528;2022-11-15T06:26:29;37.78;;;22.20;;
2123;SDS011;1068;52.460;13.528;2022-11-15T06:28:56;30.45;;;22.73;;
2123;SDS011;1068;52.460;13.528;2022-11-15T06:31:23;43.30;;;23.95;;
2123;SDS011;1068;52.460;13.528;2022-11-15T06:33:50;28.27;;;21.40;;
2123;SDS011;1068;52.460;13.528;2022-11-15T06:36:17;28.60;;;20.83;;
2123;SDS011;1068;52.460;13.528;2022-11-15T06:38:45;29.42;;;21.88;;
2123;SDS011;1068;52.460;13.528;2022-11-15T06:41:13;28.98;;;21.40;;
2123;SDS011;1068;52.460;13.528;2022-11-15T06:43:40;28.08;;;20.48;;
2123;SDS011;1068;52.460;13.528;2022-11-15T06:46:07;31.05;;;19.83;;
2123;SDS011;1068;52.460;13.528;2022-11-15T06:48:34;32.42;;;20.90;;
2123;SDS011;1068;52.460;13.528;2022-11-15T06:51:02;29.38;;;21.00;;
2123;SDS011;1068;52.460;13.528;2022-11-15T06:53:30;29.63;;;20.27;;
2123;SDS011;1068;52.460;13.528;2022-11-15T06:55:59;33.25;;;20.90;;
2123;SDS011;1068;52.460;13.528;2022-11-15T06:58:27;29.60;;;21.10;;
2123;SDS011;1068;52.460;13.528;2022-11-15T07:00:57;29.63;;;22.10;;
2123;SDS011;1068;52.460;13.528;2022-11-15T07:03:24;26.00;;;20.38;;
2123;SDS011;1068;52.460;13.528;2022-11-15T07:05:52;32.78;;;22.10;;
2123;SDS011;1068;52.460;13.528;2022-11-15T07:08:19;31.85;;;20.90;;
2123;SDS011;1068;52.460;13.528;2022-11-15T07:10:46;31.77;;;22.88;;
2123;SDS011;1068;52.460;13.528;2022-11-15T07:13:15;35.85;;;21.45;;
2123;SDS011;1068;52.460;13.528;2022-11-15T07:15:41;27.05;;;19.10;;
2123;SDS011;1068;52.460;13.528;2022-11-15T07:18:15;26.67;;;20.30;;
2123;SDS011;1068;52.460;13.528;2022-11-15T07:20:42;29.83;;;22.15;;
2123;SDS011;1068;52.460;13.528;2022-11-15T07:23:10;31.95;;;22.27;;
2123;SDS011;1068;52.460;13.528;2022-11-15T07:25:40;33.80;;;23.75;;
2123;SDS011;1068;52.460;13.528;2022-11-15T07:28:06;30.35;;;22.75;;
2123;SDS011;1068;52.460;13.528;2022-11-15T07:30:35;31.13;;;22.67;;
2123;SDS011;1068;52.460;13.528;2022-11-15T07:33:02;33.35;;;23.58;;
2123;SDS011;1068;52.460;13.528;2022-11-15T07:35:29;30.08;;;21.63;;
2123;SDS011;1068;52.460;13.528;2022-11-15T07:37:56;27.95;;;20.83;;
2123;SDS011;1068;52.460;13.528;2022-11-15T07:40:24;39.13;;;24.05;;
2123;SDS011;1068;52.460;13.528;2022-11-15T07:42:50;35.33;;;27.42;;
2123;SDS011;1068;52.460;13.528;2022-11-15T07:45:22;37.65;;;26.73;;
2123;SDS011;1068;52.460;13.528;2022-11-15T07:47:53;37.85;;;27.25;;
2123;SDS011;1068;52.460;13.528;2022-11-15T07:50:21;37.97;;;28.48;;
2123;SDS011;1068;52.460;13.528;2022-11-15T07:52:50;36.85;;;27.67;;
2123;SDS011;1068;52.460;13.528;2022-11-15T07:55:19;37.25;;;26.60;;
2123;SDS011;1068;52.460;13.528;2022-11-15T07:57:46;35.17;;;24.90;;
2123;SDS011;1068;52.460;13.528;2022-11-15T08:00:13;35.33;;;25.88;;
2123;SDS011;1068;52.460;13.528;2022-11-15T08:02:40;39.13;;;28.17;;
2123;SDS011;1068;52.460;13.528;2022-11-15T08:05:09;48.20;;;29.95;;
2123;SDS011;1068;52.460;13.528;2022-11-15T08:07:36;41.33;;;28.30;;
2123;SDS011;1068;52.460;13.528;2022-11-15T08:10:05;40.58;;;26.90;;
2123;SDS011;1068;52.460;13.528;2022-11-15T08:12:32;37.95;;;26.80;;
2123;SDS011;1068;52.460;13.528;2022-11-15T08:15:00;38.78;;;28.80;;
2123;SDS011;1068;52.460;13.528;2022-11-15T08:17:27;39.05;;;28.48;;
2123;SDS011;1068;52.460;13.528;2022-11-15T08:19:56;38.00;;;27.30;;
2123;SDS011;1068;52.460;13.528;2022-11-15T08:22:25;31.85;;;24.15;;
2123;SDS011;1068;52.460;13.528;2022-11-15T08:24:52;34.00;;;25.95;;
2123;SDS011;1068;52.460;13.528;2022-11-15T08:27:18;41.58;;;26.52;;
2123;SDS011;1068;52.460;13.528;2022-11-15T08:29:47;30.70;;;23.85;;
2123;SDS011;1068;52.460;13.528;2022-11-15T08:32:14;26.10;;;20.95;;
2123;SDS011;1068;52.460;13.528;2022-11-15T08:34:40;32.37;;;24.13;;
2123;SDS011;1068;52.460;13.528;2022-11-15T08:37:07;33.08;;;24.63;;
2123;SDS011;1068;52.460;13.528;2022-11-15T08:39:36;35.55;;;24.45;;
2123;SDS011;1068;52.460;13.528;2022-11-15T08:42:03;28.63;;;22.90;;
2123;SDS011;1068;52.460;13.528;2022-11-15T08:44:30;33.80;;;24.83;;
2123;SDS011;1068;52.460;13.528;2022-11-15T08:46:56;33.93;;;24.70;;
2123;SDS011;1068;52.460;13.528;2022-11-15T08:49:23;31.03;;;25.00;;
2123;SDS011;1068;52.460;13.528;2022-11-15T08:51:51;34.07;;;25.03;;
2123;SDS011;1068;52.460;13.528;2022-11-15T08:54:18;28.98;;;23.70;;
2123;SDS011;1068;52.460;13.528;2022-11-15T08:56:46;35.53;;;25.40;;
2123;SDS011;1068;52.460;13.528;2022-11-15T08:59:13;30.90;;;24.00;;
2123;SDS011;1068;52.460;13.528;2022-11-15T09:01:40;33.57;;;24.40;;
2123;SDS011;1068;52.460;13.528;2022-11-15T09:04:07;33.93;;;26.13;;
2123;SDS011;1068;52.460;13.528;2022-11-15T09:06:34;33.33;;;24.27;;
2123;SDS011;1068;52.460;13.528;2022-11-15T09:09:01;38.43;;;26.93;;
2123;SDS011;1068;52.460;13.528;2022-11-15T09:11:28;34.00;;;24.43;;
2123;SDS011;1068;52.460;13.528;2022-11-15T09:13:56;30.90;;;24.87;;
2123;SDS011;1068;52.460;13.528;2022-11-15T09:16:23;32.00;;;24.20;;
2123;SDS011;1068;52.460;13.528;2022-11-15T09:18:50;30.40;;;22.67;;
2123;SDS011;1068;52.460;13.528;2022-11-15T09:21:16;29.70;;;22.77;;
2123;SDS011;1068;52.460;13.528;2022-11-15T09:23:43;29.13;;;22.77;;
2123;SDS011;1068;52.460;13.528;2022-11-15T09:26:10;30.23;;;22.53;;
2123;SDS011;1068;52.460;13.528;2022-11-15T09:28:37;30.70;;;23.67;;
2123;SDS011;1068;52.460;13.528;2022-11-15T09:31:08;33.23;;;25.37;;
2123;SDS011;1068;52.460;13.528;2022-11-15T09:33:35;32.67;;;24.07;;
2123;SDS011;1068;52.460;13.528;2022-11-15T09:36:02;29.77;;;23.90;;
2123;SDS011;1068;52.460;13.528;2022-11-15T09:38:29;29.67;;;23.10;;
2123;SDS011;1068;52.460;13.528;2022-11-15T09:40:59;28.83;;;22.57;;
2123;SDS011;1068;52.460;13.528;2022-11-15T09:43:36;30.10;;;23.57;;
2123;SDS011;1068;52.460;13.528;2022-11-15T09:46:08;29.13;;;23.10;;
2123;SDS011;1068;52.460;13.528;2022-11-15T09:48:50;28.45;;;24.58;;
2123;SDS011;1068;52.460;13.528;2022-11-15T09:51:23;29.73;;;22.27;;
2123;SDS011;1068;52.460;13.528;2022-11-15T09:53:52;28.20;;;22.67;;
2123;SDS011;1068;52.460;13.528;2022-11-15T09:56:22;25.93;;;20.97;;
2123;SDS011;1068;52.460;13.528;2022-11-15T09:58:53;26.90;;;23.33;;
2123;SDS011;1068;52.460;13.528;2022-11-15T10:01:25;30.80;;;22.60;;
2123;SDS011;1068;52.460;13.528;2022-11-15T10:03:55;28.07;;;22.37;;
2123;SDS011;1068;52.460;13.528;2022-11-15T10:06:24;26.30;;;21.50;;
2123;SDS011;1068;52.460;13.528;2022-11-15T10:08:54;27.47;;;21.40;;
2123;SDS011;1068;52.460;13.528;2022-11-15T10:11:23;28.27;;;18.80;;
2123;SDS011;1068;52.460;13.528;2022-11-15T10:13:52;23.10;;;18.57;;
2123;SDS011;1068;52.460;13.528;2022-11-15T10:16:30;24.00;;;20.17;;
2123;SDS011;1068;52.460;13.528;2022-11-15T10:19:01;25.37;;;20.07;;
2123;SDS011;1068;52.460;13.528;2022-11-15T10:21:32;29.27;;;19.67;;
2123;SDS011;1068;52.460;13.528;2022-11-15T10:24:08;22.10;;;18.33;;
2123;SDS011;1068;52.460;13.528;2022-11-15T10:26:37;23.70;;;17.47;;
2123;SDS011;1068;52.460;13.528;2022-11-15T10:29:04;23.15;;;20.30;;
2123;SDS011;1068;52.460;13.528;2022-11-15T10:31:32;20.80;;;18.60;;
2123;SDS011;1068;52.460;13.528;2022-11-15T10:34:14;22.03;;;17.23;;
2123;SDS011;1068;52.460;13.528;2022-11-15T10:36:43;18.90;;;16.93;;
2123;SDS011;1068;52.460;13.528;2022-11-15T10:39:11;19.93;;;16.50;;
2123;SDS011;1068;52.460;13.528;2022-11-15T10:41:39;20.60;;;17.73;;
2123;SDS011;1068;52.460;13.528;2022-11-15T10:44:11;20.43;;;17.27;;
2123;SDS011;1068;52.460;13.528;2022-11-15T10:46:42;19.93;;;17.03;;
2123;SDS011;1068;52.460;13.528;2022-11-15T10:49:12;19.30;;;16.20;;
2123;SDS011;1068;52.460;13.528;2022-11-15T10:51:40;22.00;;;16.80;;
2123;SDS011;1068;52.460;13.528;2022-11-15T10:54:08;18.57;;;16.47;;
2123;SDS011;1068;52.460;13.528;2022-11-15T10:56:39;20.40;;;15.70;;
2123;SDS011;1068;52.460;13.528;2022-11-15T10:59:12;19.37;;;16.00;;
2123;SDS011;1068;52.460;13.528;2022-11-15T11:01:46;16.47;;;13.93;;
2123;SDS011;1068;52.460;13.528;2022-11-15T11:04:14;16.93;;;15.20;;
2123;SDS011;1068;52.460;13.528;2022-11-15T11:06:47;16.40;;;13.90;;
2123;SDS011;1068;52.460;13.528;2022-11-15T11:09:21;16.00;;;13.90;;
2123;SDS011;1068;52.460;13.528;2022-11-15T11:11:49;15.80;;;14.10;;
2123;SDS011;1068;52.460;13.528;2022-11-15T11:14:19;20.60;;;15.03;;
2123;SDS011;1068;52.460;13.528;2022-11-15T11:16:49;18.93;;;15.43;;
2123;SDS011;1068;52.460;13.528;2022-11-15T11:19:37;17.83;;;15.23;;
2123;SDS011;1068;52.460;13.528;2022-11-15T11:22:09;17.63;;;14.53;;
2123;SDS011;1068;52.460;13.528;2022-11-15T11:24:39;18.63;;;15.20;;
2123;SDS011;1068;52.460;13.528;2022-11-15T11:27:17;15.87;;;14.27;;
2123;SDS011;1068;52.460;13.528;2022-11-15T11:29:50;15.73;;;13.97;;
2123;SDS011;1068;52.460;13.528;2022-11-15T11:32:30;14.60;;;13.13;;
2123;SDS011;1068;52.460;13.528;2022-11-15T11:35:03;17.27;;;14.50;;
2123;SDS011;1068;52.460;13.528;2022-11-15T11:37:34;15.73;;;12.77;;
2123;SDS011;1068;52.460;13.528;2022-11-15T11:40:08;15.47;;;13.93;;
2123;SDS011;1068;52.460;13.528;2022-11-15T11:42:39;14.13;;;12.73;;
2123;SDS011;1068;52.460;13.528;2022-11-15T11:45:14;14.97;;;13.03;;
2123;SDS011;1068;52.460;13.528;2022-11-15T11:47:46;14.43;;;12.47;;
2123;SDS011;1068;52.460;13.528;2022-11-15T11:50:15;14.30;;;11.97;;
2123;SDS011;1068;52.460;13.528;2022-11-15T11:52:54;15.83;;;13.90;;
2123;SDS011;1068;52.460;13.528;2022-11-15T11:55:26;19.73;;;13.10;;
2123;SDS011;1068;52.460;13.528;2022-11-15T11:57:56;15.27;;;13.30;;
2123;SDS011;1068;52.460;13.528;2022-11-15T12:00:27;16.03;;;14.00;;
2123;SDS011;1068;52.460;13.528;2022-11-15T12:03:02;14.13;;;12.73;;
2123;SDS011;1068;52.460;13.528;2022-11-15T12:05:30;14.20;;;12.77;;
2123;SDS011;1068;52.460;13.528;2022-11-15T12:07:59;16.23;;;12.33;;
2123;SDS011;1068;52.460;13.528;2022-11-15T12:10:30;15.63;;;12.77;;
2123;SDS011;1068;52.460;13.528;2022-11-15T12:13:02;13.33;;;11.93;;
2123;SDS011;1068;52.460;13.528;2022-11-15T12:15:31;16.57;;;12.90;;
2123;SDS011;1068;52.460;13.528;2022-11-15T12:17:59;13.80;;;11.90;;
2123;SDS011;1068;52.460;13.528;2022-11-15T12:20:29;12.47;;;11.17;;
2123;SDS011;1068;52.460;13.528;2022-11-15T12:22:58;15.87;;;13.60;;
2123;SDS011;1068;52.460;13.528;2022-11-15T12:25:27;13.47;;;12.03;;
2123;SDS011;1068;52.460;13.528;2022-11-15T12:27:56;14.43;;;11.67;;
2123;SDS011;1068;52.460;13.528;2022-11-15T12:30:24;16.07;;;11.60;;
2123;SDS011;1068;52.460;13.528;2022-11-15T12:32:54;14.23;;;11.90;;
2123;SDS011;1068;52.460;13.528;2022-11-15T12:35:24;12.60;;;11.30;;
2123;SDS011;1068;52.460;13.528;2022-11-15T12:37:53;15.40;;;12.30;;
2123;SDS011;1068;52.460;13.528;2022-11-15T12:40:22;16.87;;;12.50;;
2123;SDS011;1068;52.460;13.528;2022-11-15T12:42:59;13.50;;;12.10;;
2123;SDS011;1068;52.460;13.528;2022-11-15T12:45:30;10.70;;;9.70;;
2123;SDS011;1068;52.460;13.528;2022-11-15T12:48:21;14.20;;;10.50;;
2123;SDS011;1068;52.460;13.528;2022-11-15T12:50:58;12.83;;;11.50;;
2123;SDS011;1068;52.460;13.528;2022-11-15T12:53:27;12.00;;;10.73;;
2123;SDS011;1068;52.460;13.528;2022-11-15T12:58:41;12.30;;;11.00;;
2123;SDS011;1068;52.460;13.528;2022-11-15T13:01:08;13.23;;;11.60;;
2123;SDS011;1068;52.460;13.528;2022-11-15T13:06:37;10.33;;;9.23;;
2123;SDS011;1068;52.460;13.528;2022-11-15T13:11:51;11.53;;;10.37;;
2123;SDS011;1068;52.460;13.528;2022-11-15T13:14:34;12.73;;;10.60;;
2123;SDS011;1068;52.460;13.528;2022-11-15T13:17:10;12.00;;;10.80;;
2123;SDS011;1068;52.460;13.528;2022-11-15T13:19:40;12.13;;;10.93;;
2123;SDS011;1068;52.460;13.528;2022-11-15T13:22:08;13.47;;;12.10;;
2123;SDS011;1068;52.460;13.528;2022-11-15T13:24:53;13.33;;;11.90;;
2123;SDS011;1068;52.460;13.528;2022-11-15T13:27:22;12.93;;;11.63;;
2123;SDS011;1068;52.460;13.528;2022-11-15T13:29:49;12.43;;;11.10;;
2123;SDS011;1068;52.460;13.528;2022-11-15T13:32:16;12.87;;;11.57;;
2123;SDS011;1068;52.460;13.528;2022-11-15T13:34:46;13.47;;;11.33;;
2123;SDS011;1068;52.460;13.528;2022-11-15T13:37:27;12.90;;;11.43;;
2123;SDS011;1068;52.460;13.528;2022-11-15T13:39:54;12.93;;;10.30;;
2123;SDS011;1068;52.460;13.528;2022-11-15T13:42:23;12.30;;;10.97;;
2123;SDS011;1068;52.460;13.528;2022-11-15T13:44:55;12.77;;;10.70;;
2123;SDS011;1068;52.460;13.528;2022-11-15T13:47:24;12.00;;;10.80;;
2123;SDS011;1068;52.460;13.528;2022-11-15T13:49:51;12.83;;;10.57;;
2123;SDS011;1068;52.460;13.528;2022-11-15T13:52:27;13.60;;;10.90;;
2123;SDS011;1068;52.460;13.528;2022-11-15T13:54:55;12.93;;;10.17;;
2123;SDS011;1068;52.460;13.528;2022-11-15T13:57:25;12.67;;;10.20;;
2123;SDS011;1068;52.460;13.528;2022-11-15T13:59:53;13.60;;;11.10;;
2123;SDS011;1068;52.460;13.528;2022-11-15T14:02:25;20.90;;;13.40;;
2123;SDS011;1068;52.460;13.528;2022-11-15T14:04:53;11.43;;;10.03;;
2123;SDS011;1068;52.460;13.528;2022-11-15T14:07:21;12.70;;;11.37;;
2123;SDS011;1068;52.460;13.528;2022-11-15T14:09:48;13.37;;;12.00;;
2123;SDS011;1068;52.460;13.528;2022-11-15T14:12:22;13.15;;;11.85;;
2123;SDS011;1068;52.460;13.528;2022-11-15T14:14:51;15.30;;;12.03;;
2123;SDS011;1068;52.460;13.528;2022-11-15T14:17:19;12.05;;;10.10;;
2123;SDS011;1068;52.460;13.528;2022-11-15T14:19:48;10.30;;;9.20;;
2123;SDS011;1068;52.460;13.528;2022-11-15T14:22:16;10.87;;;9.43;;
2123;SDS011;1068;52.460;13.528;2022-11-15T14:24:45;12.00;;;9.57;;
2123;SDS011;1068;52.460;13.528;2022-11-15T14:27:20;13.30;;;10.10;;
2123;SDS011;1068;52.460;13.528;2022-11-15T14:29:47;12.40;;;11.00;;
2123;SDS011;1068;52.460;13.528;2022-11-15T14:32:16;11.33;;;9.60;;
2123;SDS011;1068;52.460;13.528;2022-11-15T14:34:44;14.17;;;10.40;;
2123;SDS011;1068;52.460;13.528;2022-11-15T14:37:19;10.47;;;8.90;;
2123;SDS011;1068;52.460;13.528;2022-11-15T14:39:46;12.40;;;10.50;;
2123;SDS011;1068;52.460;13.528;2022-11-15T14:42:13;12.90;;;10.60;;
2123;SDS011;1068;52.460;13.528;2022-11-15T14:44:40;14.30;;;11.37;;
2123;SDS011;1068;52.460;13.528;2022-11-15T14:47:07;14.00;;;9.83;;
2123;SDS011;1068;52.460;13.528;2022-11-15T14:49:35;12.50;;;10.73;;
2123;SDS011;1068;52.460;13.528;2022-11-15T14:52:02;10.63;;;9.53;;
2123;SDS011;1068;52.460;13.528;2022-11-15T14:54:31;11.43;;;10.23;;
2123;SDS011;1068;52.460;13.528;2022-11-15T14:56:58;11.57;;;9.97;;
2123;SDS011;1068;52.460;13.528;2022-11-15T14:59:25;12.63;;;8.90;;
2123;SDS011;1068;52.460;13.528;2022-11-15T15:01:52;12.40;;;9.10;;